Time;durP1;ratioP1;P1;durP2;ratioP2;P2;SDS_P1;SDS_P2;PMS_P1;PMS_P2;Temp;Humidity;BMP_temperature;BMP_pressure;BME280_temperature;BME280_humidity;BME280_pressure;Samples;Min_cycle;Max_cycle;Signal;HPM_P1;HPM_P2
2021/03/10 00:01:53;;;;;;;;;;;5.70;99.90;;;;;;4948457;29;19925;-70
2021/03/10 00:04:19;;;;;;;;;;;5.70;99.90;;;;;;4948082;29;19914;-70
2021/03/10 00:06:47;;;;;;;;;;;5.70;99.90;;;;;;4945590;29;19921;-70
2021/03/10 00:09:26;;;;;;;;;;;5.60;99.90;;;;;;4948236;29;19918;-70
2021/03/10 00:11:52;;;;;;;;;;;5.60;99.90;;;;;;4943070;28;20009;-70
2021/03/10 00:14:20;;;;;;;;;;;5.60;99.90;;;;;;4949531;29;19996;-70
2021/03/10 00:16:48;;;;;;;;;;;5.60;99.90;;;;;;4963939;28;20887;-70
2021/03/10 00:19:13;;;;;;;;;;;5.60;99.90;;;;;;4947613;28;20664;-70
2021/03/10 00:21:41;;;;;;;;;;;5.60;99.90;;;;;;4946539;29;19957;-70
2021/03/10 00:24:09;;;;;;;;;;;5.60;99.90;;;;;;4949261;29;19930;-70
2021/03/10 00:26:35;;;;;;;;;;;5.70;99.90;;;;;;4946636;29;19999;-70
2021/03/10 00:29:02;;;;;;;;;;;5.60;99.90;;;;;;4947499;28;20358;-70
2021/03/10 00:31:30;;;;;;;;;;;5.70;99.90;;;;;;4960062;28;20462;-70
2021/03/10 00:33:56;;;;;;;;;;;5.60;99.90;;;;;;4948827;29;20485;-70
2021/03/10 00:36:21;;;;;;;;;;;5.60;99.90;;;;;;4950815;28;19950;-70
2021/03/10 00:38:47;;;;;;;;;;;5.60;99.90;;;;;;4946047;29;19962;-70
2021/03/10 00:41:12;;;;;;;;;;;5.60;99.90;;;;;;4946977;28;19922;-70
2021/03/10 00:43:38;;;;;;;;;;;5.70;99.90;;;;;;4946740;28;19927;-70
2021/03/10 00:46:03;;;;;;;;;;;5.60;99.90;;;;;;4944109;29;20007;-70
2021/03/10 00:48:31;;;;;;;;;;;5.60;99.90;;;;;;4943998;28;19917;-70
2021/03/10 00:50:57;;;;;;;;;;;5.60;99.90;;;;;;4961732;28;19918;-70
2021/03/10 00:53:23;;;;;;;;;;;5.60;99.90;;;;;;4947184;28;19918;-70
2021/03/10 00:55:48;;;;;;;;;;;5.60;99.90;;;;;;4945942;28;19977;-70
2021/03/10 00:58:14;;;;;;;;;;;5.60;99.90;;;;;;4946785;28;20548;-70
2021/03/10 01:00:42;;;;;;;;;;;5.60;99.90;;;;;;4948702;29;19915;-71
2021/03/10 01:03:07;;;;;;;;;;;5.60;99.90;;;;;;4946121;29;19915;-70
2021/03/10 01:05:33;;;;;;;;;;;5.60;99.90;;;;;;4947655;28;19925;-70
2021/03/10 01:08:01;;;;;;;;;;;5.50;99.90;;;;;;4964756;28;19925;-70
2021/03/10 01:10:29;;;;;;;;;;;5.60;99.90;;;;;;4946217;29;19915;-70
2021/03/10 01:12:54;;;;;;;;;;;5.50;99.90;;;;;;4945410;29;19917;-70
2021/03/10 01:15:20;;;;;;;;;;;5.50;99.90;;;;;;4945923;29;19911;-70
2021/03/10 01:17:48;;;;;;;;;;;5.50;99.90;;;;;;4946824;29;20252;-70
2021/03/10 01:20:15;;;;;;;;;;;5.50;99.90;;;;;;4945653;28;19956;-70
2021/03/10 01:22:40;;;;;;;;;;;5.50;99.90;;;;;;4945170;29;19914;-70
2021/03/10 01:25:06;;;;;;;;;;;5.50;99.90;;;;;;4961647;28;19929;-70
2021/03/10 01:27:32;;;;;;;;;;;5.50;99.90;;;;;;4944958;29;19969;-69
2021/03/10 01:29:57;;;;;;;;;;;5.50;99.90;;;;;;4941273;29;19935;-70
2021/03/10 01:32:23;;;;;;;;;;;5.50;99.90;;;;;;4948856;28;19914;-69
2021/03/10 01:34:48;;;;;;;;;;;5.50;99.90;;;;;;4943229;29;19921;-70
2021/03/10 01:37:16;;;;;;;;;;;5.50;99.90;;;;;;4945214;29;20009;-69
2021/03/10 01:39:41;;;;;;;;;;;5.50;99.90;;;;;;4964389;28;20371;-70
2021/03/10 01:42:10;;;;;;;;;;;5.50;99.90;;;;;;4945579;29;19915;-70
2021/03/10 01:44:36;;;;;;;;;;;5.60;99.90;;;;;;4946371;29;20117;-70
2021/03/10 01:47:01;;;;;;;;;;;5.50;99.90;;;;;;4943695;29;19918;-70
2021/03/10 01:49:27;;;;;;;;;;;5.60;99.90;;;;;;4947178;29;19914;-70
2021/03/10 01:51:53;;;;;;;;;;;5.50;99.90;;;;;;4943288;29;19954;-70
2021/03/10 01:54:20;;;;;;;;;;;5.50;99.90;;;;;;4944621;29;19933;-69
2021/03/10 01:56:46;;;;;;;;;;;5.50;99.90;;;;;;4943303;29;20030;-70
2021/03/10 01:59:11;;;;;;;;;;;5.50;99.90;;;;;;4945318;29;20021;-69
2021/03/10 02:01:37;;;;;;;;;;;5.50;99.90;;;;;;4942993;28;19970;-70
2021/03/10 02:04:06;;;;;;;;;;;5.50;99.90;;;;;;4946626;29;19918;-69
2021/03/10 02:06:37;;;;;;;;;;;5.50;99.90;;;;;;4944227;29;19956;-70
2021/03/10 02:09:06;;;;;;;;;;;5.50;99.90;;;;;;4944713;29;19910;-70
2021/03/10 02:11:32;;;;;;;;;;;5.50;99.90;;;;;;4946881;28;19938;-70
2021/03/10 02:14:04;;;;;;;;;;;5.50;99.90;;;;;;4946835;29;19929;-70
2021/03/10 02:16:36;;;;;;;;;;;5.40;99.90;;;;;;4949364;28;19919;-70
2021/03/10 02:19:25;;;;;;;;;;;5.40;99.90;;;;;;4947366;29;19938;-70
2021/03/10 02:22:09;;;;;;;;;;;5.40;99.90;;;;;;4941897;29;19918;-70
2021/03/10 02:24:37;;;;;;;;;;;5.40;99.90;;;;;;4944971;29;19934;-70
2021/03/10 02:27:32;;;;;;;;;;;5.30;99.90;;;;;;4945889;29;19933;-70
2021/03/10 02:30:02;;;;;;;;;;;5.30;99.90;;;;;;4943746;29;19919;-70
2021/03/10 02:32:27;;;;;;;;;;;5.30;99.90;;;;;;4944773;29;19918;-70
2021/03/10 02:34:53;;;;;;;;;;;5.30;99.90;;;;;;4942386;28;19918;-70
2021/03/10 02:37:18;;;;;;;;;;;5.30;99.90;;;;;;4952285;28;19926;-70
2021/03/10 02:39:46;;;;;;;;;;;5.30;99.90;;;;;;4965145;28;19911;-70
2021/03/10 02:42:14;;;;;;;;;;;5.30;99.90;;;;;;4947497;29;20376;-70
2021/03/10 02:44:40;;;;;;;;;;;5.30;99.90;;;;;;4952008;29;20510;-70
2021/03/10 02:47:05;;;;;;;;;;;5.20;99.90;;;;;;4948492;29;20008;-70
2021/03/10 02:49:31;;;;;;;;;;;5.30;99.90;;;;;;4948056;29;20038;-70
2021/03/10 02:51:56;;;;;;;;;;;5.20;99.90;;;;;;4945266;29;19971;-69
2021/03/10 02:54:24;;;;;;;;;;;5.20;99.90;;;;;;4951669;28;20009;-70
2021/03/10 02:56:52;;;;;;;;;;;5.20;99.90;;;;;;4952348;29;20020;-70
2021/03/10 02:59:18;;;;;;;;;;;5.20;99.90;;;;;;4949244;29;19925;-69
2021/03/10 03:01:43;;;;;;;;;;;5.20;99.90;;;;;;4964391;28;19911;-69
2021/03/10 03:04:09;;;;;;;;;;;5.20;99.90;;;;;;4950269;29;19910;-70
2021/03/10 03:06:34;;;;;;;;;;;5.20;99.90;;;;;;4948321;29;19985;-69
2021/03/10 03:09:02;;;;;;;;;;;5.20;99.90;;;;;;4948452;29;19917;-70
2021/03/10 03:11:28;;;;;;;;;;;5.30;99.90;;;;;;4949602;29;19997;-70
2021/03/10 03:13:53;;;;;;;;;;;5.30;99.90;;;;;;4950911;29;20361;-70
2021/03/10 03:16:19;;;;;;;;;;;5.30;99.90;;;;;;4954209;28;19981;-70
2021/03/10 03:18:44;;;;;;;;;;;5.30;99.90;;;;;;4946954;29;19914;-70
2021/03/10 03:21:12;;;;;;;;;;;5.30;99.90;;;;;;4950520;28;19914;-70
2021/03/10 03:23:38;;;;;;;;;;;5.30;99.90;;;;;;4950116;29;19969;-69
2021/03/10 03:26:04;;;;;;;;;;;5.30;99.90;;;;;;4948459;29;19915;-70
2021/03/10 03:28:32;;;;;;;;;;;5.30;99.90;;;;;;4948106;29;19974;-70
2021/03/10 03:30:57;;;;;;;;;;;5.40;99.90;;;;;;4929884;29;19910;-70
2021/03/10 03:33:27;;;;;;;;;;;5.40;99.90;;;;;;4949878;28;20582;-70
2021/03/10 03:35:53;;;;;;;;;;;5.40;99.90;;;;;;4949219;29;20482;-69
2021/03/10 03:38:20;;;;;;;;;;;5.40;99.90;;;;;;4947496;29;19910;-70
2021/03/10 03:40:45;;;;;;;;;;;5.40;99.90;;;;;;4949262;29;19918;-70
2021/03/10 03:43:11;;;;;;;;;;;5.40;99.90;;;;;;4967387;28;19910;-70
2021/03/10 03:45:36;;;;;;;;;;;5.40;99.90;;;;;;4946231;29;19993;-70
2021/03/10 03:48:02;;;;;;;;;;;5.40;99.90;;;;;;4949644;28;20539;-70
2021/03/10 03:50:30;;;;;;;;;;;5.30;99.90;;;;;;4949166;28;19914;-70
2021/03/10 03:52:56;;;;;;;;;;;5.40;99.90;;;;;;4967714;28;19917;-70
2021/03/10 03:55:26;;;;;;;;;;;5.30;99.90;;;;;;4949530;29;19910;-70
2021/03/10 03:57:54;;;;;;;;;;;5.40;99.90;;;;;;4930787;29;20352;-69
2021/03/10 04:00:21;;;;;;;;;;;5.40;99.90;;;;;;4946512;29;19911;-70
2021/03/10 04:02:47;;;;;;;;;;;5.50;99.90;;;;;;4963402;28;19925;-70
2021/03/10 04:05:15;;;;;;;;;;;5.50;99.90;;;;;;4946280;29;19918;-70
2021/03/10 04:07:50;;;;;;;;;;;5.40;99.90;;;;;;4965117;28;19910;-70
2021/03/10 04:10:16;;;;;;;;;;;5.40;99.90;;;;;;4949575;29;19910;-70
2021/03/10 04:12:41;;;;;;;;;;;5.40;99.90;;;;;;4947562;28;19914;-70
2021/03/10 04:15:07;;;;;;;;;;;5.40;99.90;;;;;;4946647;28;19925;-69
2021/03/10 04:17:33;;;;;;;;;;;5.40;99.90;;;;;;4949515;29;19919;-70
2021/03/10 04:19:58;;;;;;;;;;;5.50;99.90;;;;;;4963477;28;19914;-69
2021/03/10 04:22:26;;;;;;;;;;;5.40;99.90;;;;;;4946409;29;19919;-69
2021/03/10 04:24:51;;;;;;;;;;;5.40;99.90;;;;;;4960233;28;21724;-70
2021/03/10 04:27:19;;;;;;;;;;;5.40;99.90;;;;;;4949283;29;20130;-70
2021/03/10 04:29:50;;;;;;;;;;;5.40;99.90;;;;;;4949744;29;20028;-69
2021/03/10 04:32:15;;;;;;;;;;;5.40;99.90;;;;;;4948014;29;19925;-69
2021/03/10 04:34:41;;;;;;;;;;;5.30;99.90;;;;;;4946725;29;20478;-70
2021/03/10 04:37:09;;;;;;;;;;;5.30;99.90;;;;;;4947625;28;19922;-70
2021/03/10 04:39:34;;;;;;;;;;;5.30;99.90;;;;;;4948462;28;19928;-70
2021/03/10 04:42:02;;;;;;;;;;;5.30;99.90;;;;;;4946027;28;19914;-69
2021/03/10 04:44:27;;;;;;;;;;;5.20;99.90;;;;;;4947011;29;19984;-69
2021/03/10 04:46:53;;;;;;;;;;;5.30;99.90;;;;;;4949132;29;19910;-70
2021/03/10 04:49:18;;;;;;;;;;;5.30;99.90;;;;;;4948879;29;19941;-70
2021/03/10 04:51:44;;;;;;;;;;;5.30;99.90;;;;;;4946678;29;19921;-69
2021/03/10 04:54:15;;;;;;;;;;;5.30;99.90;;;;;;4947077;29;19973;-70
2021/03/10 04:56:43;;;;;;;;;;;5.30;99.90;;;;;;4946769;29;19922;-70
2021/03/10 04:59:08;;;;;;;;;;;5.30;99.90;;;;;;4944866;28;20352;-70
2021/03/10 05:01:34;;;;;;;;;;;5.30;99.90;;;;;;4947755;29;19925;-70
2021/03/10 05:04:02;;;;;;;;;;;5.30;99.90;;;;;;4929810;29;19910;-70
2021/03/10 05:06:27;;;;;;;;;;;5.30;99.90;;;;;;4946888;28;19973;-70
2021/03/10 05:08:53;;;;;;;;;;;5.30;99.90;;;;;;4948684;29;19957;-70
2021/03/10 05:11:19;;;;;;;;;;;5.30;99.90;;;;;;4946754;29;19957;-70
2021/03/10 05:13:44;;;;;;;;;;;5.30;99.90;;;;;;4945422;29;19910;-70
2021/03/10 05:16:10;;;;;;;;;;;5.30;99.90;;;;;;4948026;29;19914;-70
2021/03/10 05:18:35;;;;;;;;;;;5.30;99.90;;;;;;4948866;29;19910;-70
2021/03/10 05:21:03;;;;;;;;;;;5.30;99.90;;;;;;4945807;29;19910;-70
2021/03/10 05:23:29;;;;;;;;;;;5.30;99.90;;;;;;4947681;29;19930;-70
2021/03/10 05:25:54;;;;;;;;;;;5.30;99.90;;;;;;4943195;29;19911;-70
2021/03/10 05:28:20;;;;;;;;;;;5.30;99.90;;;;;;4947728;28;20241;-70
2021/03/10 05:30:45;;;;;;;;;;;5.30;99.90;;;;;;4961499;28;19925;-70
2021/03/10 05:33:11;;;;;;;;;;;5.20;99.90;;;;;;4947430;29;20653;-69
2021/03/10 05:35:39;;;;;;;;;;;5.20;99.90;;;;;;4947446;29;19925;-70
2021/03/10 05:38:09;;;;;;;;;;;5.20;99.90;;;;;;4948794;29;19998;-70
2021/03/10 05:40:37;;;;;;;;;;;5.20;99.90;;;;;;4948103;29;19930;-71
2021/03/10 05:43:03;;;;;;;;;;;5.10;99.90;;;;;;4944894;29;20520;-69
2021/03/10 05:45:28;;;;;;;;;;;5.10;99.90;;;;;;4946680;29;19914;-70
2021/03/10 05:47:56;;;;;;;;;;;5.00;99.90;;;;;;4947039;28;19911;-69
2021/03/10 05:50:22;;;;;;;;;;;5.00;99.90;;;;;;4946055;28;19910;-69
2021/03/10 05:52:50;;;;;;;;;;;4.90;99.90;;;;;;4944778;29;19918;-69
2021/03/10 05:55:16;;;;;;;;;;;4.90;99.90;;;;;;4946283;29;20264;-70
2021/03/10 05:57:42;;;;;;;;;;;4.90;99.90;;;;;;4947454;29;19918;-70
2021/03/10 06:00:14;;;;;;;;;;;4.90;99.90;;;;;;4946600;29;20368;-70
2021/03/10 06:02:42;;;;;;;;;;;4.80;99.90;;;;;;4945488;29;19919;-70
2021/03/10 06:05:39;;;;;;;;;;;4.80;99.90;;;;;;4947497;29;19914;-70
2021/03/10 06:08:05;;;;;;;;;;;4.80;99.90;;;;;;4939776;29;19966;-69
2021/03/10 06:10:40;;;;;;;;;;;4.70;99.90;;;;;;4944575;28;20366;-69
2021/03/10 06:13:25;;;;;;;;;;;4.70;99.90;;;;;;4945675;28;19939;-70
2021/03/10 06:15:51;;;;;;;;;;;4.60;99.90;;;;;;4944050;29;20332;-69
2021/03/10 06:18:23;;;;;;;;;;;4.60;99.90;;;;;;4928075;29;19911;-69
2021/03/10 06:20:49;;;;;;;;;;;4.50;99.90;;;;;;4947052;29;19921;-70
2021/03/10 06:23:15;;;;;;;;;;;4.50;99.90;;;;;;4946386;28;19914;-70
2021/03/10 06:25:40;;;;;;;;;;;4.50;99.90;;;;;;4944212;28;20348;-71
2021/03/10 06:28:06;;;;;;;;;;;4.50;99.90;;;;;;4948432;28;19929;-71
2021/03/10 06:30:34;;;;;;;;;;;4.50;99.90;;;;;;4946123;28;19945;-71
2021/03/10 06:32:59;;;;;;;;;;;4.40;99.90;;;;;;4962235;28;20030;-71
2021/03/10 06:35:25;;;;;;;;;;;4.40;99.90;;;;;;4946555;29;19911;-70
2021/03/10 06:37:51;;;;;;;;;;;4.50;99.90;;;;;;4946700;28;19961;-69
2021/03/10 06:40:17;;;;;;;;;;;4.50;99.90;;;;;;4949294;28;19915;-69
2021/03/10 06:42:54;;;;;;;;;;;4.60;99.90;;;;;;4944058;29;20005;-69
2021/03/10 06:45:30;;;;;;;;;;;4.60;99.90;;;;;;4962865;28;19994;-70
2021/03/10 06:47:55;;;;;;;;;;;4.70;99.90;;;;;;4957569;28;19930;-70
2021/03/10 06:50:21;;;;;;;;;;;4.70;99.90;;;;;;4940285;29;19918;-70
2021/03/10 06:52:51;;;;;;;;;;;4.80;99.90;;;;;;4942791;28;20455;-70
2021/03/10 06:55:17;;;;;;;;;;;4.80;99.90;;;;;;4927555;29;20435;-69
2021/03/10 06:57:43;;;;;;;;;;;4.80;99.90;;;;;;4964595;28;19918;-70
2021/03/10 07:00:18;;;;;;;;;;;4.80;99.90;;;;;;4944674;29;19973;-70
2021/03/10 07:02:44;;;;;;;;;;;4.90;99.90;;;;;;4944435;29;19954;-70
2021/03/10 07:05:12;;;;;;;;;;;4.90;99.90;;;;;;4927771;28;19949;-70
2021/03/10 07:07:40;;;;;;;;;;;5.00;99.90;;;;;;4941291;28;19929;-70
2021/03/10 07:10:06;;;;;;;;;;;5.00;99.90;;;;;;4959727;28;20336;-70
2021/03/10 07:12:31;;;;;;;;;;;5.10;99.90;;;;;;4944718;28;19925;-70
2021/03/10 07:15:00;;;;;;;;;;;5.10;99.90;;;;;;4945274;28;19918;-70
2021/03/10 07:17:25;;;;;;;;;;;5.20;99.90;;;;;;4946752;28;20463;-70
2021/03/10 07:19:53;;;;;;;;;;;5.20;99.90;;;;;;4933376;29;19929;-70
2021/03/10 07:22:35;;;;;;;;;;;5.30;99.90;;;;;;4946679;28;19911;-70
2021/03/10 07:25:07;;;;;;;;;;;5.40;99.90;;;;;;4952178;29;19914;-70
2021/03/10 07:27:46;;;;;;;;;;;5.50;99.90;;;;;;4947524;28;19922;-70
2021/03/10 07:30:12;;;;;;;;;;;5.50;99.90;;;;;;4948264;29;19972;-70
2021/03/10 07:32:37;;;;;;;;;;;5.60;99.90;;;;;;4968101;28;19961;-70
2021/03/10 07:35:03;;;;;;;;;;;5.60;99.90;;;;;;4947886;28;19993;-70
2021/03/10 07:37:31;;;;;;;;;;;5.70;99.90;;;;;;4966202;28;20400;-70
2021/03/10 07:40:06;;;;;;;;;;;5.80;99.90;;;;;;4946367;28;20256;-70
2021/03/10 07:42:34;;;;;;;;;;;5.80;99.90;;;;;;4947351;28;19956;-69
2021/03/10 07:45:02;;;;;;;;;;;5.80;99.90;;;;;;4960915;28;19921;-69
2021/03/10 07:47:28;;;;;;;;;;;5.80;99.90;;;;;;4949104;29;19973;-69
2021/03/10 07:49:57;;;;;;;;;;;5.90;99.90;;;;;;4947196;29;19926;-69
2021/03/10 07:52:25;;;;;;;;;;;5.90;99.90;;;;;;4953949;28;19915;-70
2021/03/10 07:55:01;;;;;;;;;;;6.00;99.90;;;;;;4951725;29;19910;-70
2021/03/10 07:57:26;;;;;;;;;;;6.00;99.90;;;;;;4951786;28;19923;-70
2021/03/10 07:59:55;;;;;;;;;;;6.10;99.90;;;;;;4947947;29;19911;-71
2021/03/10 08:02:21;;;;;;;;;;;6.10;99.90;;;;;;4951592;28;20388;-70
2021/03/10 08:04:52;;;;;;;;;;;6.10;99.90;;;;;;4950793;28;19954;-71
2021/03/10 08:07:26;;;;;;;;;;;6.20;99.90;;;;;;4949566;29;19918;-70
2021/03/10 08:09:56;;;;;;;;;;;6.20;99.90;;;;;;4948372;28;19925;-71
2021/03/10 08:12:31;;;;;;;;;;;6.30;99.90;;;;;;4948789;28;19922;-70
2021/03/10 08:14:57;;;;;;;;;;;6.30;99.90;;;;;;4963748;28;20120;-70
2021/03/10 08:17:26;;;;;;;;;;;6.30;99.90;;;;;;4946645;28;20763;-70
2021/03/10 08:19:52;;;;;;;;;;;6.40;99.90;;;;;;4945639;28;19960;-70
2021/03/10 08:22:19;;;;;;;;;;;6.50;99.90;;;;;;4950508;28;19918;-70
2021/03/10 08:24:47;;;;;;;;;;;6.50;99.90;;;;;;4949080;29;19914;-70
2021/03/10 08:27:13;;;;;;;;;;;6.50;99.90;;;;;;4945038;28;19918;-70
2021/03/10 08:29:49;;;;;;;;;;;6.60;99.90;;;;;;4946987;29;19919;-70
2021/03/10 08:32:27;;;;;;;;;;;6.60;98.90;;;;;;4947117;28;19914;-70
2021/03/10 08:34:59;;;;;;;;;;;6.60;99.90;;;;;;4944599;28;20396;-70
2021/03/10 08:37:25;;;;;;;;;;;6.60;99.60;;;;;;4944950;29;19981;-71
2021/03/10 08:39:50;;;;;;;;;;;6.60;99.90;;;;;;4927770;29;19957;-71
2021/03/10 08:42:18;;;;;;;;;;;6.70;99.90;;;;;;4941830;29;19911;-71
2021/03/10 08:44:45;;;;;;;;;;;6.70;97.50;;;;;;4944565;29;19910;-70
2021/03/10 08:47:12;;;;;;;;;;;6.70;97.40;;;;;;4961943;28;19910;-71
2021/03/10 08:49:38;;;;;;;;;;;6.70;99.90;;;;;;4946839;28;19950;-70
2021/03/10 08:52:17;;;;;;;;;;;6.70;99.90;;;;;;4947547;28;19922;-69
2021/03/10 08:54:55;;;;;;;;;;;6.80;99.90;;;;;;4946209;29;19946;-69
2021/03/10 08:57:28;;;;;;;;;;;6.90;99.90;;;;;;4949022;28;19918;-69
2021/03/10 08:59:53;;;;;;;;;;;7.00;99.90;;;;;;4933443;29;20384;-69
2021/03/10 09:02:28;;;;;;;;;;;7.00;99.90;;;;;;4945148;29;19914;-69
2021/03/10 09:04:53;;;;;;;;;;;7.10;99.90;;;;;;4946837;29;20382;-70
2021/03/10 09:07:22;;;;;;;;;;;7.10;99.90;;;;;;4942283;28;19925;-70
2021/03/10 09:09:47;;;;;;;;;;;7.10;99.90;;;;;;4948495;28;19922;-70
2021/03/10 09:12:13;;;;;;;;;;;7.20;99.20;;;;;;4947378;28;20358;-70
2021/03/10 09:14:39;;;;;;;;;;;7.30;98.50;;;;;;4946393;29;19968;-70
2021/03/10 09:17:05;;;;;;;;;;;7.30;94.90;;;;;;4946207;29;19915;-70
2021/03/10 09:19:38;;;;;;;;;;;7.40;96.30;;;;;;4962191;28;19938;-70
2021/03/10 09:22:12;;;;;;;;;;;7.40;97.40;;;;;;4948225;28;19914;-70
2021/03/10 09:24:54;;;;;;;;;;;7.50;97.00;;;;;;4960178;28;19922;-70
2021/03/10 09:27:21;;;;;;;;;;;7.60;96.80;;;;;;4946552;28;20371;-70
2021/03/10 09:29:46;;;;;;;;;;;7.60;96.40;;;;;;4945000;29;19910;-70
2021/03/10 09:32:12;;;;;;;;;;;7.70;93.70;;;;;;4941821;28;19945;-70
2021/03/10 09:34:37;;;;;;;;;;;7.70;94.00;;;;;;4944921;28;19918;-70
2021/03/10 09:37:07;;;;;;;;;;;7.80;93.90;;;;;;4941284;29;19918;-70
2021/03/10 09:39:45;;;;;;;;;;;7.90;96.20;;;;;;4945968;29;19970;-70
2021/03/10 09:42:13;;;;;;;;;;;7.90;93.60;;;;;;4942763;28;19910;-73
2021/03/10 09:44:51;;;;;;;;;;;7.90;95.20;;;;;;4940903;28;19997;-72
2021/03/10 09:47:18;;;;;;;;;;;7.90;97.00;;;;;;4943553;29;19958;-71
2021/03/10 09:49:47;;;;;;;;;;;7.90;96.10;;;;;;4945758;28;19915;-70
2021/03/10 09:52:13;;;;;;;;;;;8.00;96.00;;;;;;4941366;28;19910;-71
2021/03/10 09:54:52;;;;;;;;;;;8.10;97.50;;;;;;4944313;28;19910;-70
2021/03/10 09:57:21;;;;;;;;;;;8.10;94.80;;;;;;4927051;29;20248;-70
2021/03/10 09:59:47;;;;;;;;;;;8.00;93.50;;;;;;4950337;28;19957;-70
2021/03/10 10:02:15;;;;;;;;;;;8.10;96.50;;;;;;4928870;29;20016;-71
2021/03/10 10:04:43;;;;;;;;;;;8.10;95.50;;;;;;4944462;28;20429;-70
2021/03/10 10:07:12;;;;;;;;;;;8.20;96.80;;;;;;4946714;29;20347;-70
2021/03/10 10:09:38;;;;;;;;;;;8.20;98.10;;;;;;4944708;29;19924;-70
2021/03/10 10:12:07;;;;;;;;;;;8.30;97.20;;;;;;4945324;29;19910;-70
2021/03/10 10:14:33;;;;;;;;;;;8.40;94.80;;;;;;4945661;28;19918;-70
2021/03/10 10:17:01;;;;;;;;;;;8.50;94.60;;;;;;4945215;28;19923;-70
2021/03/10 10:19:28;;;;;;;;;;;8.40;94.10;;;;;;4945315;28;19921;-71
2021/03/10 10:21:56;;;;;;;;;;;8.50;93.40;;;;;;4947804;28;19911;-70
2021/03/10 10:24:22;;;;;;;;;;;8.50;94.20;;;;;;4944808;28;19949;-70
2021/03/10 10:26:48;;;;;;;;;;;8.40;95.70;;;;;;4942686;29;19919;-70
2021/03/10 10:29:14;;;;;;;;;;;8.50;93.70;;;;;;4944287;28;19921;-70
2021/03/10 10:31:42;;;;;;;;;;;8.60;95.70;;;;;;4948167;29;20008;-70
2021/03/10 10:34:07;;;;;;;;;;;8.60;94.30;;;;;;4946722;29;20510;-70
2021/03/10 10:36:33;;;;;;;;;;;8.60;91.70;;;;;;4957992;28;19927;-70
2021/03/10 10:38:59;;;;;;;;;;;8.70;93.60;;;;;;4944966;28;19914;-70
2021/03/10 10:41:24;;;;;;;;;;;8.70;92.70;;;;;;4943992;28;19919;-70
2021/03/10 10:43:50;;;;;;;;;;;8.80;93.30;;;;;;4944787;28;20279;-70
2021/03/10 10:46:18;;;;;;;;;;;8.80;94.40;;;;;;4942080;28;20045;-70
2021/03/10 10:48:45;;;;;;;;;;;8.80;92.90;;;;;;4944635;28;19955;-70
2021/03/10 10:51:10;;;;;;;;;;;8.80;92.10;;;;;;4940472;28;20269;-70
2021/03/10 10:53:38;;;;;;;;;;;8.80;92.10;;;;;;4944878;29;19919;-70
2021/03/10 10:56:07;;;;;;;;;;;8.80;93.60;;;;;;4943982;28;19915;-70
2021/03/10 10:58:32;;;;;;;;;;;8.90;94.20;;;;;;4965157;28;19942;-70
2021/03/10 11:00:58;;;;;;;;;;;8.90;94.40;;;;;;4951788;28;20009;-70
2021/03/10 11:03:25;;;;;;;;;;;8.90;92.00;;;;;;4949263;29;19919;-70
2021/03/10 11:05:50;;;;;;;;;;;8.90;91.30;;;;;;4949416;29;19925;-70
2021/03/10 11:08:18;;;;;;;;;;;8.90;92.40;;;;;;4947839;28;19910;-70
2021/03/10 11:10:44;;;;;;;;;;;8.90;92.20;;;;;;4949024;28;19914;-70
2021/03/10 11:13:09;;;;;;;;;;;8.90;91.10;;;;;;4948549;28;19941;-72
2021/03/10 11:15:35;;;;;;;;;;;8.90;92.50;;;;;;4949989;29;20324;-71
2021/03/10 11:18:00;;;;;;;;;;;8.90;92.00;;;;;;4931685;29;20356;-70
2021/03/10 11:20:28;;;;;;;;;;;8.90;92.80;;;;;;4963874;28;19936;-70
2021/03/10 11:22:54;;;;;;;;;;;8.90;92.40;;;;;;4949018;29;19914;-71
2021/03/10 11:25:19;;;;;;;;;;;9.00;93.20;;;;;;4951024;28;19921;-70
2021/03/10 11:27:48;;;;;;;;;;;9.00;93.30;;;;;;4947098;29;19918;-70
2021/03/10 11:30:14;;;;;;;;;;;9.00;93.20;;;;;;4945459;29;19946;-70
2021/03/10 11:32:42;;;;;;;;;;;9.00;93.10;;;;;;4929898;29;19965;-69
2021/03/10 11:35:08;;;;;;;;;;;9.00;91.90;;;;;;4948049;29;19960;-70
2021/03/10 11:37:36;;;;;;;;;;;9.10;91.90;;;;;;4949694;28;20088;-70
2021/03/10 11:40:01;;;;;;;;;;;9.10;93.20;;;;;;4949460;28;19954;-69
2021/03/10 11:42:27;;;;;;;;;;;9.20;94.20;;;;;;4949083;29;19954;-70
2021/03/10 11:44:55;;;;;;;;;;;9.20;92.60;;;;;;4964671;28;19925;-72
2021/03/10 11:47:21;;;;;;;;;;;9.30;93.50;;;;;;4950285;29;20004;-70
2021/03/10 11:49:46;;;;;;;;;;;9.30;92.00;;;;;;4949053;29;19929;-70
2021/03/10 11:52:14;;;;;;;;;;;9.30;90.50;;;;;;4945397;29;19938;-70
2021/03/10 11:54:39;;;;;;;;;;;9.30;90.60;;;;;;4950432;29;20009;-70
2021/03/10 11:57:06;;;;;;;;;;;9.30;91.20;;;;;;4948651;28;20001;-70
2021/03/10 11:59:32;;;;;;;;;;;9.40;91.60;;;;;;4945671;28;19925;-70
2021/03/10 12:01:57;;;;;;;;;;;9.50;90.40;;;;;;4946576;28;20001;-70
2021/03/10 12:04:25;;;;;;;;;;;9.60;92.40;;;;;;4942420;29;20337;-70
2021/03/10 12:06:51;;;;;;;;;;;9.70;89.30;;;;;;4961565;28;19953;-69
2021/03/10 12:09:19;;;;;;;;;;;9.70;91.00;;;;;;4945226;28;20081;-70
2021/03/10 12:11:45;;;;;;;;;;;9.70;88.00;;;;;;4942113;29;19997;-70
2021/03/10 12:14:13;;;;;;;;;;;9.70;91.70;;;;;;4944803;29;19926;-69
2021/03/10 12:16:39;;;;;;;;;;;9.70;90.10;;;;;;4946709;28;20462;-69
2021/03/10 12:19:05;;;;;;;;;;;9.70;88.60;;;;;;4945292;28;19925;-69
2021/03/10 12:21:33;;;;;;;;;;;9.70;91.20;;;;;;4946398;28;19919;-70
2021/03/10 12:23:59;;;;;;;;;;;9.80;91.70;;;;;;4943153;29;19921;-69
2021/03/10 12:26:24;;;;;;;;;;;9.80;90.70;;;;;;4944114;29;19911;-70
2021/03/10 12:28:50;;;;;;;;;;;9.60;86.60;;;;;;4944970;28;19914;-70
2021/03/10 12:31:16;;;;;;;;;;;9.60;90.00;;;;;;4942609;29;20763;-70
2021/03/10 12:33:43;;;;;;;;;;;9.70;89.20;;;;;;4961077;28;19921;-70
2021/03/10 12:36:09;;;;;;;;;;;9.60;88.80;;;;;;4945574;29;19919;-69
2021/03/10 12:38:34;;;;;;;;;;;9.60;89.10;;;;;;4945001;28;20105;-69
2021/03/10 12:41:00;;;;;;;;;;;9.70;90.10;;;;;;4947444;28;20363;-70
2021/03/10 12:43:28;;;;;;;;;;;9.60;88.90;;;;;;4945027;28;19929;-70
2021/03/10 12:45:54;;;;;;;;;;;9.60;90.50;;;;;;4946438;29;20280;-69
2021/03/10 12:48:19;;;;;;;;;;;9.70;90.50;;;;;;4944166;29;19915;-69
2021/03/10 12:50:45;;;;;;;;;;;9.70;90.50;;;;;;4949086;28;20363;-70
2021/03/10 12:53:15;;;;;;;;;;;9.80;90.70;;;;;;4946338;28;19955;-70
2021/03/10 12:55:40;;;;;;;;;;;9.90;90.40;;;;;;4947494;28;19988;-70
2021/03/10 12:58:08;;;;;;;;;;;9.90;89.90;;;;;;4946651;29;20369;-70
2021/03/10 13:00:33;;;;;;;;;;;10.00;90.10;;;;;;4947549;28;20072;-70
2021/03/10 13:03:02;;;;;;;;;;;10.10;86.00;;;;;;4943419;28;20029;-70
2021/03/10 13:05:27;;;;;;;;;;;10.10;88.10;;;;;;4941362;29;19925;-70
2021/03/10 13:07:53;;;;;;;;;;;10.10;84.30;;;;;;4943980;28;19910;-70
2021/03/10 13:10:19;;;;;;;;;;;10.20;87.00;;;;;;4944125;28;19914;-70
2021/03/10 13:12:47;;;;;;;;;;;10.20;86.70;;;;;;4944802;28;19938;-70
2021/03/10 13:15:13;;;;;;;;;;;10.10;86.80;;;;;;4945789;29;19914;-71
2021/03/10 13:17:38;;;;;;;;;;;10.10;86.80;;;;;;4946893;29;19918;-71
2021/03/10 13:20:04;;;;;;;;;;;10.10;85.00;;;;;;4945203;28;19916;-68
2021/03/10 13:22:30;;;;;;;;;;;10.00;86.90;;;;;;4961233;28;20417;-70
2021/03/10 13:24:56;;;;;;;;;;;10.00;86.10;;;;;;4950777;28;19911;-70
2021/03/10 13:27:22;;;;;;;;;;;10.00;85.50;;;;;;4961010;28;19923;-70
2021/03/10 13:29:51;;;;;;;;;;;9.90;87.30;;;;;;4945524;28;19986;-70
2021/03/10 13:32:17;;;;;;;;;;;9.90;87.60;;;;;;4945398;29;19946;-70
2021/03/10 13:34:45;;;;;;;;;;;10.00;87.80;;;;;;4946281;28;19973;-71
2021/03/10 13:37:10;;;;;;;;;;;10.00;87.70;;;;;;4944955;28;20017;-70
2021/03/10 13:39:36;;;;;;;;;;;10.00;88.60;;;;;;4946868;28;20053;-70
2021/03/10 13:42:03;;;;;;;;;;;10.00;86.40;;;;;;4960838;28;19910;-71
2021/03/10 13:44:31;;;;;;;;;;;10.00;86.20;;;;;;4946244;29;19918;-70
2021/03/10 13:46:56;;;;;;;;;;;9.90;86.10;;;;;;4944256;28;19921;-70
2021/03/10 13:49:22;;;;;;;;;;;9.90;86.90;;;;;;4945935;29;19910;-70
2021/03/10 13:51:47;;;;;;;;;;;9.90;86.50;;;;;;4947753;28;19915;-71
2021/03/10 13:54:13;;;;;;;;;;;9.80;87.80;;;;;;4943866;29;19922;-70
2021/03/10 13:56:39;;;;;;;;;;;9.80;88.00;;;;;;4943787;28;20411;-70
2021/03/10 13:59:04;;;;;;;;;;;9.80;89.10;;;;;;4941833;28;19924;-71
2021/03/10 14:01:32;;;;;;;;;;;9.80;89.60;;;;;;4940531;29;20057;-70
2021/03/10 14:03:58;;;;;;;;;;;9.90;88.70;;;;;;4929686;29;20588;-70
2021/03/10 14:06:23;;;;;;;;;;;9.90;87.40;;;;;;4943572;29;19957;-70
2021/03/10 14:08:54;;;;;;;;;;;9.90;89.00;;;;;;4944152;29;19918;-70
2021/03/10 14:11:19;;;;;;;;;;;9.90;90.10;;;;;;4943365;29;20186;-70
2021/03/10 14:13:45;;;;;;;;;;;9.90;87.00;;;;;;4945318;28;19914;-70
2021/03/10 14:16:10;;;;;;;;;;;9.90;88.90;;;;;;4944730;29;20375;-71
2021/03/10 14:18:38;;;;;;;;;;;9.90;88.50;;;;;;4942243;28;19914;-70
2021/03/10 14:21:03;;;;;;;;;;;9.90;89.70;;;;;;4941085;28;20331;-71
2021/03/10 14:23:29;;;;;;;;;;;9.90;89.70;;;;;;4944880;28;19918;-71
2021/03/10 14:25:55;;;;;;;;;;;9.90;90.20;;;;;;4941347;29;20081;-70
2021/03/10 14:28:23;;;;;;;;;;;9.90;91.40;;;;;;4941938;29;19911;-69
2021/03/10 14:30:50;;;;;;;;;;;9.90;88.30;;;;;;4943911;29;19914;-68